Details for AeroLogic at EDDF




Go Back


Latest METAR
Local Time

EDDF 250450Z 03005KT 350V070 7000 OVC007 17/15 Q1018 NOSIG

25/05/2018, 06:56:51

Description
Results
AeroLogic Logo
Number of Pilots based at EDDF
0 Pilots Based here
Number of AeroLogic Flights Departed from EDDF
0 Flights Departed
Number of AeroLogic Flights Arrived at EDDF
0 Flights Arrived
Number of AeroLogic Schedules Departing from EDDF
13 Schedules
Number of AeroLogic Schedules Arriving at EDDF
11 Schedules
Number of AeroLogic Schedules Departing from EDDF availible today
2 Schedules Today
Number of AeroLogic Schedules Arriving at EDDF availible today
2 Schedules Today
Average Landing Rate at EDDF
-239 fpm
AeroLogic Average Landing Rate at EDDF
0 fpm
Total Fuel Purchased at EDDF by AeroLogic
0.00 kgs / 0.00 lbs

Pilots Based at EDDF


Pilot ID
Pilot Name
Pilot Rank
No. of Flights
No. of Flying Hours
There are no pilots assigned to this hub!   Will you be the first?
Content